Time;durP1;ratioP1;P1;durP2;ratioP2;P2;SDS_P1;SDS_P2;PMS_P1;PMS_P2;Temp;Humidity;BMP_temperature;BMP_pressure;BME280_temperature;BME280_humidity;BME280_pressure;Samples;Min_cycle;Max_cycle;Signal;HPM_P1;HPM_P2
2021/10/06 00:00:25;;;;;;;11.10;9.20;;;;;;;18.06;48.92;100095.36;116073;1198;22632;-78
2021/10/06 00:03:08;;;;;;;13.40;10.00;;;;;;;17.99;48.92;100092.52;116094;1198;23440;-78
2021/10/06 00:05:39;;;;;;;16.50;10.70;;;;;;;17.92;49.18;100092.44;115996;1198;21885;-78
2021/10/06 00:08:10;;;;;;;12.90;9.80;;;;;;;17.86;49.23;100092.86;116283;1197;21906;-78
2021/10/06 00:10:40;;;;;;;12.90;9.70;;;;;;;17.84;49.52;100096.48;116270;1196;21919;-78
2021/10/06 00:13:12;;;;;;;13.70;9.20;;;;;;;17.79;49.59;100096.69;116266;1197;22001;-79
2021/10/06 00:15:44;;;;;;;18.10;10.50;;;;;;;17.74;49.56;100095.88;116032;1199;22673;-78
2021/10/06 00:18:15;;;;;;;12.40;9.50;;;;;;;17.70;49.66;100092.93;116340;1193;21888;-78
2021/10/06 00:20:45;;;;;;;12.90;9.70;;;;;;;17.66;49.69;100093.86;116386;1193;21982;-78
2021/10/06 00:23:14;;;;;;;17.30;9.50;;;;;;;17.62;49.91;100095.30;116514;1191;24174;-78
2021/10/06 00:25:44;;;;;;;15.00;9.10;;;;;;;17.58;50.15;100096.21;116526;1190;21931;-78
2021/10/06 00:28:17;;;;;;;11.00;9.80;;;;;;;17.53;49.99;100094.77;116578;1191;22906;-79
2021/10/06 00:30:48;;;;;;;14.70;9.50;;;;;;;17.48;50.15;100093.14;116582;1190;21944;-79
2021/10/06 00:33:19;;;;;;;12.30;9.80;;;;;;;17.42;50.40;100094.41;116616;1188;21895;-79
2021/10/06 00:35:48;;;;;;;15.20;9.40;;;;;;;17.37;50.43;100096.51;116886;1188;22170;-78
2021/10/06 00:38:18;;;;;;;12.20;8.90;;;;;;;17.33;50.59;100100.64;116911;1187;23504;-78
2021/10/06 00:40:50;;;;;;;11.60;8.60;;;;;;;17.31;50.76;100101.98;116994;1188;21886;-78
2021/10/06 00:43:20;;;;;;;12.10;9.10;;;;;;;17.27;50.65;100105.41;117043;1186;22030;-77
2021/10/06 00:45:50;;;;;;;13.30;9.10;;;;;;;17.23;50.76;100110.14;116830;1188;24147;-77
2021/10/06 00:48:20;;;;;;;18.70;9.90;;;;;;;17.22;51.07;100118.52;116875;1188;24148;-78
2021/10/06 00:50:50;;;;;;;11.80;8.70;;;;;;;17.19;51.07;100112.88;116825;1188;21901;-78
2021/10/06 00:53:25;;;;;;;12.10;9.40;;;;;;;17.17;51.14;100114.50;116492;1193;22733;-79
2021/10/06 00:55:57;;;;;;;13.10;9.60;;;;;;;17.16;51.18;100114.83;116503;1180;21910;-78
2021/10/06 00:58:28;;;;;;;11.70;8.90;;;;;;;17.15;51.35;100110.48;116480;1190;22821;-78
2021/10/06 01:00:58;;;;;;;11.20;10.00;;;;;;;17.15;51.38;100112.87;116266;1196;21893;-78
2021/10/06 01:03:28;;;;;;;15.50;10.30;;;;;;;17.11;51.32;100107.84;116281;1197;21930;-79
2021/10/06 01:05:58;;;;;;;12.00;9.30;;;;;;;17.09;51.52;100112.33;116222;1193;21981;-79
2021/10/06 01:08:28;;;;;;;18.00;9.30;;;;;;;17.06;51.68;100111.16;116249;1195;22922;-78
2021/10/06 01:10:59;;;;;;;12.20;9.70;;;;;;;17.07;51.87;100114.94;116263;1192;23442;-78
2021/10/06 01:13:29;;;;;;;11.80;10.00;;;;;;;17.08;51.86;100119.12;116590;1190;21877;-79
2021/10/06 01:15:59;;;;;;;17.50;9.60;;;;;;;17.09;51.74;100124.73;116626;1192;21934;-79
2021/10/06 01:18:29;;;;;;;11.80;9.10;;;;;;;17.09;51.91;100122.52;116646;1190;21912;-78
2021/10/06 01:21:10;;;;;;;10.60;9.10;;;;;;;17.11;51.96;100125.30;116527;1192;23474;-79
2021/10/06 01:23:40;;;;;;;13.30;9.10;;;;;;;17.13;51.86;100130.91;116640;1189;22158;-79
2021/10/06 01:26:18;;;;;;;10.80;8.60;;;;;;;17.14;51.76;100133.32;116705;1188;22181;-80
2021/10/06 01:28:52;;;;;;;11.00;8.90;;;;;;;17.15;51.67;100131.48;116805;1189;23439;-80
2021/10/06 01:31:27;;;;;;;16.00;9.30;;;;;;;17.15;51.63;100134.91;116855;1188;21892;-79
2021/10/06 01:33:57;;;;;;;16.80;10.50;;;;;;;17.10;51.80;100130.77;116925;1188;22198;-78
2021/10/06 01:36:26;;;;;;;13.50;9.40;;;;;;;17.09;51.89;100122.32;116523;1193;23607;-79
2021/10/06 01:38:56;;;;;;;13.20;9.00;;;;;;;17.06;51.95;100119.05;116247;1195;23576;-78
2021/10/06 01:41:33;;;;;;;11.90;9.20;;;;;;;17.06;51.96;100123.45;116358;1193;21902;-78
2021/10/06 01:44:04;;;;;;;14.10;9.40;;;;;;;17.05;51.95;100130.75;116358;1192;21899;-79
2021/10/06 01:46:34;;;;;;;13.30;9.60;;;;;;;17.07;52.08;100128.77;116338;1195;22666;-79
2021/10/06 01:49:04;;;;;;;8.90;7.90;;;;;;;17.09;52.02;100131.84;116249;1183;22922;-79
2021/10/06 01:51:34;;;;;;;13.30;8.80;;;;;;;17.09;52.01;100130.73;116454;1193;22023;-78
2021/10/06 01:54:04;;;;;;;10.20;9.10;;;;;;;17.08;52.15;100126.51;116300;1192;21885;-79
2021/10/06 01:56:34;;;;;;;14.50;10.30;;;;;;;17.07;52.08;100127.23;116501;1193;21901;-78
2021/10/06 01:59:04;;;;;;;12.50;7.90;;;;;;;17.06;51.99;100124.59;116501;1193;22087;-79
2021/10/06 02:01:34;;;;;;;14.50;9.30;;;;;;;17.07;52.06;100125.44;116372;1182;21886;-79
2021/10/06 02:04:04;;;;;;;12.80;8.90;;;;;;;17.08;52.01;100128.11;116481;1192;21874;-79
2021/10/06 02:06:34;;;;;;;12.40;8.50;;;;;;;17.10;52.01;100128.88;116552;1189;23465;-76
2021/10/06 02:09:04;;;;;;;13.90;8.30;;;;;;;17.10;51.86;100125.64;116460;1193;24001;-75
2021/10/06 02:11:33;;;;;;;12.70;8.60;;;;;;;17.10;51.83;100130.43;116170;1194;21910;-75
2021/10/06 02:14:05;;;;;;;14.70;8.20;;;;;;;17.11;51.89;100127.68;116391;1193;21878;-79
2021/10/06 02:16:42;;;;;;;16.00;9.80;;;;;;;17.09;51.74;100128.80;116792;1192;21880;-79
2021/10/06 02:19:14;;;;;;;15.00;8.20;;;;;;;17.07;51.71;100131.98;116704;1190;22180;-79
2021/10/06 02:21:48;;;;;;;13.20;8.40;;;;;;;17.04;51.85;100134.38;116263;1195;22909;-80
2021/10/06 02:24:23;;;;;;;12.60;8.70;;;;;;;17.02;51.87;100138.33;116340;1182;22900;-78
2021/10/06 02:26:55;;;;;;;12.10;7.80;;;;;;;17.00;52.02;100140.92;116391;1195;21951;-78
2021/10/06 02:29:28;;;;;;;9.60;8.40;;;;;;;17.00;51.96;100141.13;116403;1192;21890;-78
2021/10/06 02:31:59;;;;;;;12.90;8.60;;;;;;;16.99;52.01;100138.10;116707;1189;22358;-78
2021/10/06 02:34:30;;;;;;;15.70;10.00;;;;;;;16.97;51.99;100137.48;116610;1190;22937;-77
2021/10/06 02:37:00;;;;;;;11.80;8.80;;;;;;;16.94;52.05;100141.08;116880;1187;21890;-77
2021/10/06 02:39:33;;;;;;;13.20;8.10;;;;;;;16.92;52.12;100138.85;116905;1188;21913;-77
2021/10/06 02:42:03;;;;;;;11.20;9.10;;;;;;;16.89;52.16;100140.87;116954;1184;23808;-78
2021/10/06 02:44:34;;;;;;;11.80;8.50;;;;;;;16.87;52.36;100141.55;116903;1188;21885;-78
2021/10/06 02:47:09;;;;;;;12.80;8.40;;;;;;;16.83;52.37;100148.24;116860;1184;21887;-78
2021/10/06 02:49:41;;;;;;;10.10;8.80;;;;;;;16.81;52.41;100146.83;116981;1189;23549;-78
2021/10/06 02:52:11;;;;;;;11.10;8.80;;;;;;;16.77;52.48;100147.48;116878;1189;21930;-78
2021/10/06 02:54:42;;;;;;;10.90;8.40;;;;;;;16.75;52.59;100145.97;116979;1188;21930;-78
2021/10/06 02:57:11;;;;;;;10.10;8.10;;;;;;;16.74;52.72;100148.69;116855;1189;24200;-80
2021/10/06 02:59:41;;;;;;;12.10;8.20;;;;;;;16.73;52.72;100153.70;116806;1189;22916;-77
2021/10/06 03:02:12;;;;;;;12.50;8.60;;;;;;;16.72;52.94;100157.80;117011;1189;22206;-78
2021/10/06 03:04:42;;;;;;;14.90;9.40;;;;;;;16.71;52.90;100159.32;116854;1189;21901;-77
2021/10/06 03:07:14;;;;;;;11.40;10.30;;;;;;;16.70;52.93;100162.36;117113;1184;23426;-78
2021/10/06 03:09:44;;;;;;;13.30;9.70;;;;;;;16.70;53.01;100162.11;116992;1189;21908;-78
2021/10/06 03:12:14;;;;;;;11.60;9.40;;;;;;;16.68;52.90;100165.77;116871;1188;22211;-78
2021/10/06 03:14:44;;;;;;;12.90;8.70;;;;;;;16.68;52.99;100168.36;116946;1188;21897;-77
2021/10/06 03:17:13;;;;;;;10.90;8.50;;;;;;;16.68;53.16;100168.40;116897;1187;22671;-78
2021/10/06 03:19:44;;;;;;;15.00;9.00;;;;;;;16.69;53.13;100169.05;117074;1188;23467;-77
2021/10/06 03:22:14;;;;;;;10.50;9.30;;;;;;;16.70;53.07;100169.46;116944;1188;22275;-80
2021/10/06 03:24:43;;;;;;;17.50;9.60;;;;;;;16.71;52.99;100171.13;116853;1188;21887;-79
2021/10/06 03:27:16;;;;;;;11.30;8.80;;;;;;;16.70;53.02;100165.56;116556;1191;22930;-78
2021/10/06 03:29:45;;;;;;;10.40;8.50;;;;;;;16.67;52.99;100158.39;116792;1191;21881;-79
2021/10/06 03:32:15;;;;;;;10.30;9.10;;;;;;;16.66;53.12;100162.98;116773;1190;23468;-78
2021/10/06 03:34:45;;;;;;;13.90;9.10;;;;;;;16.68;53.22;100167.09;116763;1191;21884;-79
2021/10/06 03:37:15;;;;;;;12.40;8.40;;;;;;;16.69;53.27;100170.66;116704;1191;22910;-78
2021/10/06 03:39:45;;;;;;;14.80;9.80;;;;;;;16.69;53.15;100180.27;116792;1191;23464;-79
2021/10/06 03:42:14;;;;;;;19.10;9.10;;;;;;;16.68;53.22;100177.69;116793;1189;23471;-79
2021/10/06 03:44:46;;;;;;;14.30;9.20;;;;;;;16.68;53.20;100179.78;116796;1188;22949;-79
2021/10/06 03:47:16;;;;;;;11.50;7.80;;;;;;;16.68;53.24;100184.00;116898;1188;21879;-80
2021/10/06 03:49:45;;;;;;;13.80;9.10;;;;;;;16.66;53.21;100190.03;117082;1188;21879;-80
2021/10/06 03:52:15;;;;;;;9.90;8.30;;;;;;;16.63;53.30;100193.20;117242;1184;21889;-79
2021/10/06 03:54:44;;;;;;;10.90;8.50;;;;;;;16.60;53.40;100190.05;116978;1192;24203;-79
2021/10/06 03:57:14;;;;;;;10.80;8.90;;;;;;;16.59;53.62;100188.38;116525;1193;22975;-79
2021/10/06 03:59:44;;;;;;;21.50;9.20;;;;;;;16.58;53.59;100187.86;116495;1193;22230;-80
2021/10/06 04:02:13;;;;;;;12.00;8.70;;;;;;;16.58;53.74;100185.43;116778;1192;21975;-80
2021/10/06 04:04:43;;;;;;;14.60;7.80;;;;;;;16.59;53.75;100187.81;116754;1193;21905;-80
2021/10/06 04:07:12;;;;;;;11.60;8.30;;;;;;;16.62;53.65;100192.96;116843;1193;21877;-80
2021/10/06 04:09:42;;;;;;;9.90;7.60;;;;;;;16.63;53.58;100193.41;116775;1193;21995;-80
2021/10/06 04:12:11;;;;;;;14.00;9.60;;;;;;;16.63;53.62;100190.20;116487;1191;23439;-80
2021/10/06 04:14:41;;;;;;;12.90;8.60;;;;;;;16.60;53.58;100191.09;116983;1188;21878;-80
2021/10/06 04:17:10;;;;;;;11.20;7.70;;;;;;;16.58;53.57;100190.52;117045;1180;23631;-79
2021/10/06 04:19:41;;;;;;;14.90;8.70;;;;;;;16.54;53.67;100198.41;116984;1184;21892;-78
2021/10/06 04:22:11;;;;;;;10.30;8.80;;;;;;;16.49;53.78;100207.32;116893;1188;21886;-77
2021/10/06 04:25:24;;;;;;;13.70;8.00;;;;;;;16.45;53.79;100215.66;116951;1188;21930;-80
2021/10/06 04:27:59;;;;;;;13.20;8.20;;;;;;;16.39;53.88;100218.72;116635;1190;23503;-79
2021/10/06 04:30:45;;;;;;;13.00;9.00;;;;;;;16.34;54.13;100218.27;116505;1193;23550;-79
2021/10/06 04:33:22;;;;;;;9.00;8.10;;;;;;;16.30;54.37;100220.05;116499;1193;22654;-79
2021/10/06 04:36:05;;;;;;;12.50;8.70;;;;;;;16.28;54.34;100219.98;116520;1193;21894;-78
2021/10/06 04:38:40;;;;;;;12.70;8.30;;;;;;;16.26;54.44;100218.17;116483;1193;23562;-79
2021/10/06 04:41:10;;;;;;;14.20;8.70;;;;;;;16.22;54.50;100217.48;116251;1196;22012;-78
2021/10/06 04:43:43;;;;;;;14.60;8.20;;;;;;;16.20;54.47;100220.98;116002;1198;21929;-79
2021/10/06 04:46:19;;;;;;;12.20;8.00;;;;;;;16.19;54.65;100225.98;115995;1196;22915;-78
2021/10/06 04:48:56;;;;;;;15.50;8.70;;;;;;;16.19;54.63;100227.20;115964;1199;21944;-78
2021/10/06 04:51:26;;;;;;;14.60;8.80;;;;;;;16.17;54.58;100233.36;116212;1195;22693;-77
2021/10/06 04:54:04;;;;;;;9.80;8.00;;;;;;;16.12;54.62;100235.86;116214;1197;21889;-78
2021/10/06 04:56:44;;;;;;;13.70;9.10;;;;;;;16.08;54.84;100237.67;115809;1201;23095;-78
2021/10/06 04:59:19;;;;;;;12.00;8.60;;;;;;;16.06;55.00;100241.27;115884;1198;22462;-79
2021/10/06 05:01:55;;;;;;;12.10;8.50;;;;;;;16.04;55.06;100246.78;116041;1192;22904;-76
2021/10/06 05:04:31;;;;;;;11.30;8.60;;;;;;;16.00;55.19;100254.72;116311;1196;24619;-76
2021/10/06 05:07:12;;;;;;;14.70;9.40;;;;;;;15.97;55.42;100257.52;116309;1196;22858;-75
2021/10/06 05:09:45;;;;;;;14.20;10.70;;;;;;;16.00;55.65;100259.89;116522;1193;21898;-76
2021/10/06 05:12:20;;;;;;;13.00;9.30;;;;;;;16.05;55.72;100263.05;116353;1195;21917;-77
2021/10/06 05:15:05;;;;;;;17.20;10.30;;;;;;;16.10;55.67;100267.67;116375;1187;22914;-76
2021/10/06 05:17:52;;;;;;;16.10;9.10;;;;;;;16.13;55.60;100274.98;116545;1190;23539;-76
2021/10/06 05:20:22;;;;;;;13.40;9.60;;;;;;;16.17;55.63;100276.41;116197;1196;22344;-77
2021/10/06 05:22:52;;;;;;;15.40;9.30;;;;;;;16.23;55.69;100278.61;116179;1197;24173;-77
2021/10/06 05:25:25;;;;;;;14.70;9.30;;;;;;;16.28;55.56;100282.39;115952;1200;22874;-76
2021/10/06 05:27:56;;;;;;;16.60;10.00;;;;;;;16.30;55.43;100280.02;116011;1199;22867;-76
2021/10/06 05:30:26;;;;;;;15.00;9.50;;;;;;;16.33;55.54;100274.42;115897;1194;22921;-76
2021/10/06 05:32:56;;;;;;;14.40;10.20;;;;;;;16.35;55.52;100274.01;115934;1197;21947;-75
2021/10/06 05:35:30;;;;;;;13.90;9.70;;;;;;;16.37;55.38;100289.02;116179;1193;21895;-76
2021/10/06 05:38:00;;;;;;;14.00;9.20;;;;;;;16.37;55.29;100296.27;115794;1198;23071;-76
2021/10/06 05:40:32;;;;;;;10.80;8.80;;;;;;;16.36;55.35;100299.23;115904;1200;21930;-75
2021/10/06 05:43:02;;;;;;;15.80;11.10;;;;;;;16.34;55.33;100303.13;115942;1197;23438;-75
2021/10/06 05:45:32;;;;;;;13.70;10.60;;;;;;;16.30;55.27;100306.63;115887;1199;23492;-75
2021/10/06 05:48:05;;;;;;;15.70;9.80;;;;;;;16.30;55.55;100311.99;115905;1201;22009;-75
2021/10/06 05:51:00;;;;;;;14.00;9.10;;;;;;;16.32;55.54;100313.72;115784;1201;21895;-74
2021/10/06 05:53:37;;;;;;;16.40;10.30;;;;;;;16.31;55.70;100316.75;115663;1199;21885;-75
2021/10/06 05:56:07;;;;;;;12.80;9.40;;;;;;;16.34;55.86;100321.66;115808;1199;21926;-75
2021/10/06 05:58:40;;;;;;;13.00;9.90;;;;;;;16.40;55.81;100330.94;115870;1200;21939;-75
2021/10/06 06:01:09;;;;;;;16.40;9.50;;;;;;;16.45;55.91;100338.43;115654;1198;22665;-75
2021/10/06 06:03:41;;;;;;;;;;;;;;;16.51;55.93;100346.17;115885;1199;21886;-75
2021/10/06 06:06:14;;;;;;;18.00;11.70;;;;;;;16.51;56.07;100354.39;116198;1196;21896;-75
2021/10/06 06:08:43;;;;;;;14.80;11.50;;;;;;;16.54;56.12;100364.97;116204;1188;22927;-75
2021/10/06 06:11:13;;;;;;;21.20;13.70;;;;;;;16.60;56.46;100372.27;116248;1193;22855;-76
2021/10/06 06:13:43;;;;;;;23.90;18.00;;;;;;;16.66;56.83;100374.80;116380;1188;23469;-75
2021/10/06 06:16:13;;;;;;;29.00;20.90;;;;;;;16.72;57.49;100387.31;116502;1189;22621;-77
2021/10/06 06:18:43;;;;;;;30.30;22.50;;;;;;;16.79;58.23;100395.67;116953;1188;21896;-74
2021/10/06 06:21:13;;;;;;;30.10;21.30;;;;;;;16.85;59.11;100393.48;117049;1188;23633;-75
2021/10/06 06:23:43;;;;;;;26.30;22.80;;;;;;;16.90;59.70;100396.09;116758;1191;21902;-74
2021/10/06 06:26:12;;;;;;;27.70;22.60;;;;;;;16.96;60.32;100398.48;116725;1191;21895;-74
2021/10/06 06:28:44;;;;;;;32.70;22.40;;;;;;;17.00;60.94;100402.48;116519;1193;23449;-73
2021/10/06 06:31:17;;;;;;;28.30;20.70;;;;;;;17.04;61.43;100409.02;116612;1193;21901;-74
2021/10/06 06:33:49;;;;;;;29.70;19.40;;;;;;;17.07;61.55;100415.08;116454;1192;21875;-74
2021/10/06 06:36:19;;;;;;;23.00;16.80;;;;;;;17.08;61.75;100421.16;116445;1190;23430;-74
2021/10/06 06:38:54;;;;;;;13.20;11.10;;;;;;;17.09;62.11;100421.11;116448;1193;22032;-75
2021/10/06 06:41:25;;;;;;;12.80;9.00;;;;;;;17.10;62.15;100421.36;116551;1191;23262;-74
2021/10/06 06:43:55;;;;;;;9.00;7.40;;;;;;;17.11;62.26;100423.86;116663;1191;22113;-74
2021/10/06 06:46:24;;;;;;;9.50;7.30;;;;;;;17.13;62.29;100427.71;116554;1187;23461;-78
2021/10/06 06:48:58;;;;;;;8.70;7.60;;;;;;;17.14;62.29;100429.15;116843;1189;22800;-74
2021/10/06 06:51:30;;;;;;;8.20;6.80;;;;;;;17.15;62.15;100432.48;116932;1189;22196;-74
2021/10/06 06:54:08;;;;;;;8.60;6.70;;;;;;;17.12;62.05;100436.59;116726;1191;22125;-74
2021/10/06 06:56:40;;;;;;;6.60;5.90;;;;;;;17.08;61.95;100439.27;116761;1191;21898;-74
2021/10/06 06:59:13;;;;;;;6.70;5.50;;;;;;;17.02;61.90;100439.90;116524;1190;23592;-73
2021/10/06 07:01:53;;;;;;;6.10;5.50;;;;;;;16.97;61.93;100443.79;116419;1195;23630;-74
2021/10/06 07:04:24;;;;;;;6.10;5.50;;;;;;;16.96;62.25;100448.52;116168;1197;21888;-74
2021/10/06 07:06:56;;;;;;;5.90;5.20;;;;;;;16.97;62.27;100450.04;116203;1193;22596;-74
2021/10/06 07:09:29;;;;;;;9.20;5.40;;;;;;;16.98;62.18;100455.30;115975;1199;21891;-75
2021/10/06 07:12:03;;;;;;;7.30;5.30;;;;;;;16.97;62.02;100455.58;116032;1197;22818;-74
2021/10/06 07:14:40;;;;;;;9.70;5.00;;;;;;;16.96;62.23;100459.77;116194;1197;22834;-74
2021/10/06 07:17:11;;;;;;;4.90;4.40;;;;;;;16.98;62.43;100467.58;115931;1197;22534;-75
2021/10/06 07:19:46;;;;;;;10.70;4.80;;;;;;;17.00;62.25;100477.95;116011;1198;22775;-75
2021/10/06 07:22:19;;;;;;;6.10;4.90;;;;;;;17.00;61.98;100483.91;116169;1196;22914;-75
2021/10/06 07:24:48;;;;;;;5.30;4.80;;;;;;;16.99;61.85;100491.95;116234;1196;21875;-74
2021/10/06 07:27:20;;;;;;;7.20;5.10;;;;;;;16.91;61.70;100499.84;116213;1196;21898;-75
2021/10/06 07:30:00;;;;;;;11.70;6.60;;;;;;;16.88;62.06;100507.06;116144;1198;22940;-78
2021/10/06 07:32:33;;;;;;;7.00;6.20;;;;;;;16.85;62.19;100512.48;116208;1198;22277;-77
2021/10/06 07:35:10;;;;;;;7.60;6.40;;;;;;;16.83;62.17;100516.46;116179;1193;21899;-77
2021/10/06 07:38:02;;;;;;;6.30;5.20;;;;;;;16.82;62.37;100522.08;116568;1190;23780;-77
2021/10/06 07:40:37;;;;;;;10.70;5.90;;;;;;;16.81;62.26;100520.08;116733;1190;22971;-77
2021/10/06 07:43:19;;;;;;;6.50;4.80;;;;;;;16.79;62.47;100517.48;116476;1190;21899;-77
2021/10/06 07:45:51;;;;;;;11.90;8.10;;;;;;;16.80;62.57;100512.77;116484;1190;23445;-77
2021/10/06 07:48:22;;;;;;;5.80;5.20;;;;;;;16.82;62.64;100515.10;116604;1191;21892;-77
2021/10/06 07:51:02;;;;;;;7.70;4.50;;;;;;;16.86;62.83;100515.84;116525;1192;23805;-76
2021/10/06 07:53:37;;;;;;;13.50;5.30;;;;;;;16.86;62.63;100517.00;116513;1192;22333;-77
2021/10/06 07:56:22;;;;;;;4.80;4.20;;;;;;;16.86;62.74;100517.90;116877;1191;23439;-77
2021/10/06 07:59:02;;;;;;;8.10;4.00;;;;;;;16.87;62.56;100520.16;116746;1190;21917;-74
2021/10/06 08:01:37;;;;;;;5.20;4.70;;;;;;;16.85;62.61;100529.08;116580;1192;22306;-79
2021/10/06 08:04:25;;;;;;;4.60;4.00;;;;;;;16.82;62.55;100531.56;116676;1190;21890;-78
2021/10/06 08:07:10;;;;;;;16.40;10.10;;;;;;;16.77;62.46;100533.23;116521;1191;21946;-78
2021/10/06 08:09:55;;;;;;;10.70;5.80;;;;;;;16.73;62.83;100536.34;116598;1188;21899;-78
2021/10/06 08:12:37;;;;;;;12.70;5.60;;;;;;;16.74;63.05;100545.06;116530;1192;23980;-78
2021/10/06 08:15:14;;;;;;;11.10;4.80;;;;;;;16.76;63.01;100545.15;116559;1190;22653;-78
2021/10/06 08:17:47;;;;;;;8.40;5.30;;;;;;;16.78;63.14;100542.55;116537;1191;21906;-78
2021/10/06 08:20:32;;;;;;;12.10;5.70;;;;;;;16.80;63.07;100542.86;116528;1193;21940;-79
2021/10/06 08:23:08;;;;;;;7.20;5.80;;;;;;;16.80;63.15;100541.21;116506;1190;21898;-78
2021/10/06 08:25:40;;;;;;;7.50;5.40;;;;;;;16.83;63.21;100543.35;116553;1190;22633;-79
2021/10/06 08:28:14;;;;;;;12.90;5.10;;;;;;;16.80;63.06;100550.45;116884;1190;21902;-79
2021/10/06 08:30:49;;;;;;;12.50;5.40;;;;;;;16.76;63.08;100547.98;117053;1187;22328;-81
2021/10/06 08:33:25;;;;;;;7.10;4.70;;;;;;;16.73;63.24;100547.42;116550;1193;21890;-80
2021/10/06 08:36:00;;;;;;;8.50;5.30;;;;;;;16.72;63.53;100545.65;116491;1186;21900;-79
2021/10/06 08:38:34;;;;;;;8.70;7.10;;;;;;;16.77;63.85;100547.73;116512;1195;22807;-82
2021/10/06 08:41:07;;;;;;;11.00;9.00;;;;;;;16.83;64.21;100547.13;116462;1195;21934;-79
2021/10/06 08:43:39;;;;;;;8.00;7.30;;;;;;;16.90;64.13;100544.00;116462;1195;21903;-78
2021/10/06 08:46:22;;;;;;;6.70;6.10;;;;;;;16.92;63.99;100546.40;116462;1187;22917;-79
2021/10/06 08:49:07;;;;;;;5.90;5.30;;;;;;;16.96;64.12;100545.20;116498;1195;21922;-80
2021/10/06 08:51:41;;;;;;;7.20;5.80;;;;;;;17.00;64.23;100548.89;116890;1191;21908;-80
2021/10/06 08:54:11;;;;;;;20.20;18.00;;;;;;;17.08;64.28;100555.77;117129;1189;21889;-80
2021/10/06 08:56:49;;;;;;;5.50;5.00;;;;;;;17.14;63.67;100559.05;117067;1189;21948;-80
2021/10/06 08:59:27;;;;;;;6.10;4.60;;;;;;;17.15;63.11;100556.45;117052;1188;22914;-80
2021/10/06 09:02:27;;;;;;;4.20;3.80;;;;;;;17.14;63.13;100558.76;117074;1189;22910;-79
2021/10/06 09:05:22;;;;;;;10.90;6.30;;;;;;;17.10;63.07;100556.95;117084;1189;24116;-77
2021/10/06 09:08:14;;;;;;;5.60;5.10;;;;;;;17.11;63.29;100552.71;117055;1188;23105;-78
2021/10/06 09:11:18;;;;;;;5.60;3.90;;;;;;;17.17;63.29;100556.38;117234;1189;21876;-79
2021/10/06 09:14:43;;;;;;;11.20;3.70;;;;;;;17.24;63.00;100560.73;116861;1185;22906;-79
2021/10/06 09:17:33;;;;;;;17.40;4.60;;;;;;;17.30;62.90;100564.36;116923;1189;21872;-78
2021/10/06 09:20:18;;;;;;;6.70;3.90;;;;;;;17.39;62.91;100565.31;116899;1189;22634;-78
2021/10/06 09:23:31;;;;;;;6.20;3.80;;;;;;;17.45;62.59;100567.98;116521;1190;22036;-80
2021/10/06 09:26:19;;;;;;;5.40;3.80;;;;;;;17.53;62.39;100570.42;116769;1193;23543;-79
2021/10/06 09:29:01;;;;;;;6.90;5.10;;;;;;;17.63;62.68;100575.38;116586;1193;21897;-79
2021/10/06 09:31:44;;;;;;;4.80;3.30;;;;;;;17.77;62.51;100580.52;116502;1193;21986;-79
2021/10/06 09:34:38;;;;;;;5.30;3.70;;;;;;;17.82;61.43;100588.91;116291;1193;22857;-79
2021/10/06 09:37:43;;;;;;;5.30;4.30;;;;;;;17.80;60.93;100593.48;116443;1195;21902;-79
2021/10/06 09:40:39;;;;;;;5.40;4.70;;;;;;;17.78;61.03;100595.73;116495;1195;23045;-79
2021/10/06 09:43:30;;;;;;;9.20;8.30;;;;;;;17.75;60.43;100603.54;116338;1195;21922;-79
2021/10/06 09:46:15;;;;;;;7.10;4.50;;;;;;;17.71;60.40;100610.97;116305;1193;23452;-79
2021/10/06 09:49:24;;;;;;;11.30;9.90;;;;;;;17.66;60.58;100611.59;116228;1197;22668;-78
2021/10/06 09:52:25;;;;;;;9.50;6.30;;;;;;;17.67;61.08;100615.73;116250;1196;22274;-79
2021/10/06 09:55:07;;;;;;;10.00;6.80;;;;;;;17.74;61.18;100621.39;116373;1190;22953;-77
2021/10/06 09:58:08;;;;;;;7.60;5.70;;;;;;;17.77;60.62;100620.55;116557;1193;21887;-78
2021/10/06 10:00:44;;;;;;;5.30;4.30;;;;;;;17.76;60.42;100628.93;116348;1193;22651;-78
2021/10/06 10:03:20;;;;;;;5.40;3.20;;;;;;;17.73;60.23;100635.05;116497;1194;21902;-78
2021/10/06 10:05:50;;;;;;;6.60;3.50;;;;;;;17.70;60.15;100635.41;116288;1194;22746;-77
2021/10/06 10:08:21;;;;;;;18.70;3.40;;;;;;;17.69;59.99;100634.11;116738;1191;23551;-78
2021/10/06 10:11:00;;;;;;;6.00;3.00;;;;;;;17.66;59.87;100635.06;116434;1193;22321;-78
2021/10/06 10:13:31;;;;;;;5.30;3.60;;;;;;;17.68;60.01;100640.48;116506;1191;21880;-78
2021/10/06 10:16:01;;;;;;;50.50;45.00;;;;;;;17.67;59.65;100645.80;116665;1190;22014;-77
2021/10/06 10:18:32;;;;;;;8.70;6.70;;;;;;;17.65;59.62;100650.15;116468;1190;21892;-76
2021/10/06 10:21:03;;;;;;;7.10;4.20;;;;;;;17.70;59.88;100649.69;116490;1191;21897;-75
2021/10/06 10:23:34;;;;;;;8.20;3.40;;;;;;;17.77;59.92;100646.58;116525;1194;21903;-74
2021/10/06 10:26:04;;;;;;;6.80;3.30;;;;;;;17.82;59.65;100649.13;116034;1197;21908;-75
2021/10/06 10:28:41;;;;;;;3.70;3.10;;;;;;;17.85;59.41;100648.51;116162;1183;21908;-74
2021/10/06 10:31:14;;;;;;;3.50;3.00;;;;;;;17.86;59.02;100652.66;116588;1196;21902;-75
2021/10/06 10:33:48;;;;;;;4.00;3.60;;;;;;;17.85;59.05;100655.13;116496;1192;21959;-75
2021/10/06 10:36:37;;;;;;;4.70;3.70;;;;;;;17.87;59.14;100654.52;116373;1196;21899;-75
2021/10/06 10:39:36;;;;;;;5.40;4.00;;;;;;;17.91;59.38;100654.95;116663;1196;22666;-73
2021/10/06 10:42:07;;;;;;;5.00;3.90;;;;;;;17.97;59.32;100661.77;116205;1198;23643;-75
2021/10/06 10:44:39;;;;;;;4.60;3.80;;;;;;;18.02;59.24;100659.50;116124;1194;21917;-75
2021/10/06 10:47:09;;;;;;;6.30;4.90;;;;;;;18.05;59.11;100651.50;116421;1195;21946;-74
2021/10/06 10:49:52;;;;;;;6.40;4.50;;;;;;;18.09;59.12;100651.13;116458;1192;21882;-74
2021/10/06 10:52:48;;;;;;;5.20;4.30;;;;;;;18.13;59.12;100652.46;116704;1191;21914;-74
2021/10/06 10:55:43;;;;;;;8.60;4.60;;;;;;;18.17;59.29;100656.90;116550;1192;22083;-74
2021/10/06 10:58:29;;;;;;;4.20;3.70;;;;;;;18.22;59.13;100652.95;116739;1192;21897;-74
2021/10/06 11:01:07;;;;;;;5.30;4.80;;;;;;;18.24;58.73;100661.26;116640;1192;22625;-74
2021/10/06 11:04:23;;;;;;;3.70;3.30;;;;;;;18.23;58.23;100666.35;116707;1190;22896;-75
2021/10/06 11:07:18;;;;;;;5.60;4.90;;;;;;;18.15;58.04;100671.34;116460;1195;22951;-74
2021/10/06 11:09:53;;;;;;;6.80;4.90;;;;;;;18.13;58.15;100680.77;116408;1195;22067;-75
2021/10/06 11:12:27;;;;;;;5.10;4.30;;;;;;;18.10;58.02;100684.48;116401;1195;23547;-75
2021/10/06 11:15:16;;;;;;;4.40;4.00;;;;;;;18.08;58.00;100689.46;116437;1195;21894;-74
2021/10/06 11:18:17;;;;;;;9.10;4.70;;;;;;;18.04;58.24;100691.04;116474;1190;21868;-75
2021/10/06 11:20:58;;;;;;;9.40;8.30;;;;;;;18.03;58.68;100689.55;116687;1192;21902;-75
2021/10/06 11:23:31;;;;;;;8.90;6.10;;;;;;;18.03;58.62;100688.31;116303;1195;23509;-74
2021/10/06 11:26:03;;;;;;;6.80;4.40;;;;;;;18.05;58.58;100691.78;116368;1195;21896;-74
2021/10/06 11:28:42;;;;;;;10.40;4.80;;;;;;;18.03;58.44;100690.86;116452;1195;24744;-75
2021/10/06 11:31:13;;;;;;;5.60;4.80;;;;;;;17.99;58.64;100693.18;116364;1195;21934;-75
2021/10/06 11:33:45;;;;;;;7.50;4.90;;;;;;;17.96;58.68;100692.98;116232;1193;24142;-73
2021/10/06 11:36:34;;;;;;;4.80;4.20;;;;;;;17.95;58.70;100690.18;116437;1191;21899;-74
2021/10/06 11:39:11;;;;;;;7.70;6.00;;;;;;;17.93;58.70;100686.40;116449;1192;23458;-75
2021/10/06 11:41:50;;;;;;;8.70;6.90;;;;;;;17.92;58.79;100686.52;116525;1193;21900;-74
2021/10/06 11:44:26;;;;;;;8.50;7.70;;;;;;;17.91;58.66;100682.21;116648;1192;21892;-74
2021/10/06 11:47:19;;;;;;;9.00;8.10;;;;;;;17.89;58.70;100680.40;116726;1191;22772;-74
2021/10/06 11:49:49;;;;;;;7.10;5.60;;;;;;;17.89;58.71;100678.15;116536;1193;22076;-74